Time;durP1;ratioP1;P1;durP2;ratioP2;P2;SDS_P1;SDS_P2;PMS_P1;PMS_P2;Temp;Humidity;BMP_temperature;BMP_pressure;BME280_temperature;BME280_humidity;BME280_pressure;Samples;Min_cycle;Max_cycle;Signal;HPM_P1;HPM_P2
2022/11/25 06:28:06;;;;;;;33.63;15.30;;;;;;;0.93;100.00;100726.16;5256546;33;31432;-83
2022/11/25 06:31:18;;;;;;;;;;;;;;;0.90;100.00;100725.41;5271733;33;33928;-83
2022/11/25 06:34:22;;;;;;;38.05;15.40;;;;;;;0.92;100.00;100732.41;5271870;33;34040;-83
2022/11/25 06:37:25;;;;;;;37.00;15.15;;;;;;;0.98;100.00;100738.13;5271698;33;33900;-83
2022/11/25 06:40:28;;;;;;;40.58;17.87;;;;;;;1.01;100.00;100735.25;5271227;33;33591;-83
2022/11/25 06:43:31;;;;;;;49.90;20.95;;;;;;;1.01;100.00;100743.22;5270511;33;33993;-84
2022/11/25 06:46:34;;;;;;;48.58;19.62;;;;;;;1.12;100.00;100731.84;5270741;33;34582;-83
2022/11/25 06:49:36;;;;;;;41.28;18.95;;;;;;;1.25;100.00;100739.78;5253911;33;33568;-84
2022/11/25 06:52:39;;;;;;;41.05;20.48;;;;;;;1.38;100.00;100737.12;5242697;33;32603;-83
2022/11/25 06:55:42;;;;;;;40.03;18.95;;;;;;;1.56;100.00;100738.44;5270661;33;33837;-83
2022/11/25 06:58:46;;;;;;;41.37;19.42;;;;;;;1.72;100.00;100746.13;5263461;33;228807;-83
2022/11/25 07:01:49;;;;;;;46.33;21.17;;;;;;;1.85;100.00;100751.41;5271758;33;33700;-84
2022/11/25 07:04:52;;;;;;;43.20;19.62;;;;;;;1.98;100.00;100755.66;5270915;33;33835;-84
2022/11/25 07:07:55;;;;;;;40.20;19.67;;;;;;;2.12;100.00;100759.13;5270548;33;35170;-84
2022/11/25 07:11:27;;;;;;;41.75;20.12;;;;;;;2.17;100.00;100762.28;5257466;33;32516;-84
2022/11/25 07:14:29;;;;;;;39.40;18.20;;;;;;;2.40;100.00;100764.06;5256465;33;33225;-83
2022/11/25 07:17:32;;;;;;;36.30;18.73;;;;;;;2.49;100.00;100770.50;5270086;33;33511;-83
2022/11/25 07:20:35;;;;;;;37.70;17.67;;;;;;;2.65;100.00;100778.16;5270824;33;33403;-83
2022/11/25 07:23:39;;;;;;;35.42;17.20;;;;;;;2.85;100.00;100779.28;5278089;33;34236;-83
2022/11/25 07:26:43;;;;;;;34.58;17.12;;;;;;;3.04;100.00;100774.25;5280572;33;34545;-83
2022/11/25 07:29:48;;;;;;;36.08;16.83;;;;;;;3.29;100.00;100774.97;5288212;33;34203;-83
2022/11/25 07:33:12;;;;;;;35.47;17.15;;;;;;;3.64;100.00;100783.66;5290671;33;34088;-85
2022/11/25 07:36:15;;;;;;;37.38;16.95;;;;;;;3.97;100.00;100781.88;5288034;33;34737;-84
2022/11/25 07:39:20;;;;;;;37.92;15.95;;;;;;;4.07;100.00;100782.00;5275713;33;33883;-84
2022/11/25 07:42:24;;;;;;;32.92;15.48;;;;;;;4.18;100.00;100778.41;5277938;33;32142;-84
2022/11/25 07:45:26;;;;;;;39.20;17.10;;;;;;;4.25;100.00;100783.13;5290013;33;35135;-84
2022/11/25 07:48:31;;;;;;;30.55;15.82;;;;;;;4.32;100.00;100783.47;5292847;33;34762;-84
2022/11/25 07:51:40;;;;;;;29.87;15.10;;;;;;;4.45;100.00;100781.47;5295655;33;34989;-84
2022/11/25 07:54:43;;;;;;;34.85;15.32;;;;;;;4.54;100.00;100780.69;5292127;33;34159;-84
2022/11/25 07:57:46;;;;;;;28.17;14.25;;;;;;;4.68;100.00;100776.88;5289858;33;33640;-84
2022/11/25 08:00:48;;;;;;;33.10;16.25;;;;;;;4.98;100.00;100778.75;5290195;33;33909;-84
2022/11/25 08:03:52;;;;;;;30.00;15.07;;;;;;;5.10;100.00;100776.00;5294628;33;34040;-84
2022/11/25 08:06:55;;;;;;;32.45;14.60;;;;;;;5.19;100.00;100783.19;5283465;33;31286;-84
2022/11/25 08:09:57;;;;;;;31.27;15.90;;;;;;;5.23;100.00;100780.16;5292690;33;33498;-84
2022/11/25 08:13:01;;;;;;;32.38;15.10;;;;;;;5.24;100.00;100786.31;5289816;33;33470;-84
2022/11/25 08:16:05;;;;;;;31.62;15.90;;;;;;;5.46;100.00;100787.94;5289976;33;35131;-84
2022/11/25 08:19:12;;;;;;;30.30;14.87;;;;;;;5.60;100.00;100792.09;5289570;33;33785;-84
2022/11/25 08:22:16;;;;;;;32.10;13.68;;;;;;;5.67;100.00;100791.41;5289746;33;33901;-84
2022/11/25 08:25:19;;;;;;;27.67;14.18;;;;;;;5.88;100.00;100790.50;5291578;33;33419;-84
2022/11/25 08:28:23;;;;;;;26.87;13.55;;;;;;;6.06;100.00;100799.53;5291781;33;33645;-84
2022/11/25 08:31:29;;;;;;;29.00;14.30;;;;;;;6.28;100.00;100792.25;5290980;33;33904;-84
2022/11/25 08:34:32;;;;;;;27.67;13.40;;;;;;;6.46;100.00;100803.09;5291610;33;33728;-84
2022/11/25 08:37:34;;;;;;;27.48;12.60;;;;;;;6.43;100.00;100795.34;5302686;33;33824;-84
2022/11/25 08:40:43;;;;;;;27.37;13.57;;;;;;;6.51;100.00;100798.16;5302962;33;33699;-84
2022/11/25 08:43:45;;;;;;;24.77;12.90;;;;;;;6.68;100.00;100796.63;5290636;33;34535;-84
2022/11/25 08:46:48;;;;;;;25.15;13.35;;;;;;;6.79;100.00;100801.81;5282408;33;33073;-84
2022/11/25 08:49:52;;;;;;;30.83;12.82;;;;;;;6.71;100.00;100807.88;5289623;33;33844;-84
2022/11/25 08:52:56;;;;;;;27.58;13.90;;;;;;;6.92;100.00;100802.34;5289259;33;33810;-84
2022/11/25 08:55:58;;;;;;;26.30;14.00;;;;;;;6.92;98.15;100804.19;5289343;33;34765;-83
2022/11/25 08:59:03;;;;;;;24.05;13.05;;;;;;;6.91;97.99;100802.50;5290780;33;34118;-84
2022/11/25 09:02:08;;;;;;;25.92;13.45;;;;;;;7.02;98.82;100797.81;5290657;33;33550;-84
2022/11/25 09:05:14;;;;;;;26.17;14.23;;;;;;;7.12;98.98;100792.44;5276825;33;32152;-83
2022/11/25 09:08:17;;;;;;;27.05;13.73;;;;;;;7.20;98.90;100794.41;5289262;33;33950;-84
2022/11/25 09:11:20;;;;;;;27.33;13.85;;;;;;;7.37;97.62;100790.09;5292139;33;33661;-85
2022/11/25 09:14:22;;;;;;;26.27;13.05;;;;;;;7.45;96.28;100791.03;5290211;33;34161;-84
2022/11/25 09:17:26;;;;;;;25.88;14.07;;;;;;;7.37;96.06;100798.12;5276575;33;33287;-84
2022/11/25 09:20:31;;;;;;;32.85;14.02;;;;;;;7.45;96.22;100791.03;5289823;33;33425;-83
2022/11/25 09:23:34;;;;;;;24.25;13.13;;;;;;;7.60;97.34;100796.75;5289848;33;34150;-83
2022/11/25 09:26:39;;;;;;;21.40;12.60;;;;;;;7.64;97.34;100800.00;5289337;33;33987;-88
2022/11/25 09:29:43;;;;;;;23.17;13.32;;;;;;;7.60;98.33;100804.78;5289269;33;34176;-88
2022/11/25 09:32:52;;;;;;;27.52;14.02;;;;;;;7.67;96.32;100799.72;5289218;33;34707;-86
2022/11/25 09:35:59;;;;;;;23.95;12.88;;;;;;;7.84;96.82;100793.56;5289136;33;33703;-84
2022/11/25 09:39:02;;;;;;;25.00;13.18;;;;;;;7.99;95.22;100796.56;5290457;33;33969;-84
2022/11/25 09:46:40;;;;;;;23.58;12.60;;;;;;;8.21;93.86;100799.81;5294186;33;34506;-83
2022/11/25 09:50:08;;;;;;;22.42;11.55;;;;;;;8.30;93.61;100788.16;5293009;33;33839;-83
2022/11/25 09:53:52;;;;;;;25.30;11.90;;;;;;;8.44;91.66;100789.50;5271468;33;34022;-84
2022/11/25 09:57:09;;;;;;;26.45;13.18;;;;;;;8.39;90.60;100788.12;5297807;33;34748;-84
2022/11/25 10:00:17;;;;;;;22.60;11.52;;;;;;;8.40;91.72;100786.28;5290956;33;33954;-84
2022/11/25 10:03:47;;;;;;;24.92;12.27;;;;;;;8.52;91.30;100779.69;5298809;33;34474;-84
2022/11/25 10:06:53;;;;;;;;;;;;;;;8.59;88.64;100779.91;5289566;33;33753;-83
2022/11/25 10:10:01;;;;;;;21.75;11.68;;;;;;;8.44;88.66;100778.75;5289021;33;34122;-84
2022/11/25 10:13:11;;;;;;;21.92;11.45;;;;;;;8.51;89.38;100782.50;5289072;33;34008;-84
2022/11/25 10:16:58;;;;;;;23.67;11.77;;;;;;;8.63;89.72;100771.38;5274758;33;33491;-84
2022/11/25 10:20:21;;;;;;;21.17;11.05;;;;;;;8.78;89.51;100777.03;5233600;34;34299;-84
2022/11/25 10:23:32;;;;;;;21.10;11.32;;;;;;;8.95;88.12;100775.31;5239969;33;33556;-88
2022/11/25 10:26:39;;;;;;;21.83;11.52;;;;;;;8.92;89.96;100767.59;5290321;33;34320;-85
2022/11/25 10:29:54;;;;;;;25.52;12.23;;;;;;;9.06;88.30;100768.81;5276014;33;32771;-84
2022/11/25 10:33:14;;;;;;;21.48;11.63;;;;;;;9.24;87.40;100769.63;5275987;33;32921;-84
2022/11/25 10:36:28;;;;;;;22.83;12.50;;;;;;;9.29;87.24;100764.59;5288833;33;33928;-84
2022/11/25 10:39:33;;;;;;;22.60;11.20;;;;;;;9.35;86.09;100767.66;5275453;33;32585;-84
2022/11/25 10:42:36;;;;;;;20.40;11.60;;;;;;;9.42;86.89;100766.00;5288270;33;33437;-84
2022/11/25 10:45:52;;;;;;;21.83;11.60;;;;;;;9.62;86.44;100766.59;5275279;33;32257;-84
2022/11/25 10:48:59;;;;;;;25.42;12.93;;;;;;;9.65;84.93;100775.19;5288638;33;33876;-84
2022/11/25 10:52:10;;;;;;;19.85;11.30;;;;;;;9.69;83.82;100781.06;5288648;33;34299;-84
2022/11/25 10:55:25;;;;;;;24.87;12.18;;;;;;;9.87;84.39;100772.91;5288535;33;34627;-84
2022/11/25 10:58:30;;;;;;;26.17;12.57;;;;;;;9.79;83.05;100775.56;5288556;33;34315;-84
2022/11/25 11:01:34;;;;;;;27.48;14.80;;;;;;;9.92;84.43;100770.56;5288484;33;34279;-84
2022/11/25 11:04:53;;;;;;;27.10;15.20;;;;;;;9.92;84.75;100773.25;5288271;33;34657;-84
2022/11/25 11:08:14;;;;;;;26.08;12.77;;;;;;;10.13;81.83;100775.50;5288486;33;33822;-84
2022/11/25 11:11:20;;;;;;;27.62;13.07;;;;;;;10.14;84.56;100780.69;5288315;33;34339;-89
2022/11/25 11:14:28;;;;;;;33.75;16.45;;;;;;;10.40;81.26;100777.91;5288242;33;34230;-88
2022/11/25 11:17:33;;;;;;;35.10;17.37;;;;;;;10.51;79.75;100779.44;5275207;33;33081;-84
2022/11/25 11:20:45;;;;;;;32.45;17.17;;;;;;;10.59;79.17;100784.84;5289191;33;33776;-84
2022/11/25 11:23:53;;;;;;;30.02;16.58;;;;;;;10.92;79.90;100781.28;5289067;33;34225;-84
2022/11/25 11:27:21;;;;;;;30.77;16.17;;;;;;;11.17;76.80;100790.16;5288099;33;34943;-84
2022/11/25 11:30:29;;;;;;;28.52;15.45;;;;;;;11.66;75.47;100785.44;5277019;33;32197;-84
2022/11/25 11:33:42;;;;;;;34.85;16.25;;;;;;;12.04;72.93;100791.03;5291710;33;34215;-84
2022/11/25 11:36:47;;;;;;;29.52;15.35;;;;;;;12.21;72.50;100781.00;5293013;33;33902;-84
2022/11/25 11:39:59;;;;;;;28.33;15.10;;;;;;;12.35;71.27;100782.91;5296696;33;34002;-84
2022/11/25 11:43:05;;;;;;;28.77;14.87;;;;;;;12.83;68.40;100783.53;5290058;33;34161;-83
2022/11/25 11:46:23;;;;;;;31.83;16.15;;;;;;;12.98;66.10;100788.97;5278735;33;34176;-84
2022/11/25 11:49:51;;;;;;;28.12;15.02;;;;;;;13.01;66.31;100782.37;5280281;33;32412;-85
2022/11/25 11:53:04;;;;;;;26.67;14.37;;;;;;;13.58;64.07;100779.09;5277756;33;33755;-84
2022/11/25 11:56:23;;;;;;;27.10;14.40;;;;;;;13.38;63.69;100781.50;5284369;33;33879;-88
2022/11/25 12:00:01;;;;;;;27.00;14.02;;;;;;;13.70;62.37;100785.69;5285592;33;34321;-84
2022/11/25 12:03:18;;;;;;;24.40;14.50;;;;;;;14.70;58.78;100787.66;5282870;33;33461;-84
2022/11/25 12:06:24;;;;;;;23.55;14.07;;;;;;;15.42;56.47;100780.25;5273546;33;33886;-84
2022/11/25 12:09:30;;;;;;;25.15;14.00;;;;;;;16.28;54.54;100771.66;5276073;33;34653;-84
2022/11/25 12:12:37;;;;;;;23.58;12.70;;;;;;;17.61;51.11;100766.19;5272759;33;33874;-84
2022/11/25 12:15:54;;;;;;;25.70;11.82;;;;;;;18.47;48.75;100771.22;5275009;33;33766;-84
2022/11/25 12:19:03;;;;;;;22.75;12.32;;;;;;;18.95;46.08;100778.00;5274700;33;33946;-84
2022/11/25 12:22:20;;;;;;;20.10;11.40;;;;;;;18.95;46.64;100778.00;5262841;33;33302;-84
2022/11/25 12:25:28;;;;;;;20.15;11.05;;;;;;;19.42;44.18;100776.50;5259573;33;33036;-84
2022/11/25 12:28:46;;;;;;;19.08;11.25;;;;;;;20.00;44.94;100768.91;5264335;33;31940;-85
2022/11/25 12:31:57;;;;;;;23.35;10.30;;;;;;;20.82;42.95;100780.13;5275215;33;32612;-85
2022/11/25 12:35:13;;;;;;;19.00;10.00;;;;;;;20.86;41.35;100769.56;5269933;33;34161;-89
2022/11/25 12:38:23;;;;;;;17.45;9.73;;;;;;;21.57;40.18;100762.19;5264513;33;32677;-85
2022/11/25 12:41:39;;;;;;;18.85;9.77;;;;;;;21.55;38.87;100764.31;5264872;33;32407;-85
2022/11/25 12:45:05;;;;;;;18.52;10.60;;;;;;;20.21;41.53;100765.69;5266258;33;32807;-85
2022/11/25 12:48:10;;;;;;;18.15;10.60;;;;;;;19.94;42.47;100760.56;5284714;33;33807;-85
2022/11/25 12:51:29;;;;;;;19.95;9.88;;;;;;;20.07;42.58;100756.00;5266479;33;32529;-86
2022/11/25 12:54:49;;;;;;;18.15;10.00;;;;;;;18.73;45.15;100751.12;5285062;33;34488;-86
2022/11/25 12:57:59;;;;;;;15.55;8.93;;;;;;;16.65;50.36;100753.09;5265552;33;32284;-86
2022/11/25 13:01:20;;;;;;;17.17;9.38;;;;;;;15.13;55.21;100754.19;5285985;33;34384;-86
2022/11/25 13:04:42;;;;;;;16.23;8.85;;;;;;;13.32;62.04;100757.91;5275479;33;34603;-86
2022/11/25 13:08:10;;;;;;;17.75;9.38;;;;;;;12.46;65.60;100758.19;5273056;33;33008;-84
2022/11/25 13:11:54;;;;;;;17.08;9.30;;;;;;;11.74;69.59;100766.53;5266153;33;33945;-84
2022/11/25 13:15:16;;;;;;;17.62;9.18;;;;;;;11.24;72.49;100761.50;5261823;33;33675;-84
2022/11/25 13:18:28;;;;;;;14.93;8.57;;;;;;;10.66;76.03;100772.37;5271094;33;32119;-84
2022/11/25 13:21:30;;;;;;;17.05;8.48;;;;;;;10.40;79.22;100763.59;5276736;33;34191;-85
2022/11/25 13:24:41;;;;;;;16.45;8.77;;;;;;;10.10;80.75;100757.81;5273958;33;33961;-84
2022/11/25 13:27:43;;;;;;;15.02;7.75;;;;;;;9.94;80.97;100757.78;5275047;33;32299;-84
2022/11/25 13:30:51;;;;;;;15.93;7.70;;;;;;;9.84;82.30;100760.62;5292898;33;33933;-85
2022/11/25 13:34:05;;;;;;;13.07;7.12;;;;;;;9.56;83.73;100765.38;5290514;33;33916;-85
2022/11/25 13:37:34;;;;;;;13.20;6.90;;;;;;;9.50;84.46;100766.03;5292463;33;33383;-85
2022/11/25 13:40:38;;;;;;;17.87;7.68;;;;;;;9.34;84.46;100761.44;5291442;33;33702;-84
2022/11/25 13:43:54;;;;;;;11.93;6.95;;;;;;;9.16;86.90;100774.94;5285798;33;33390;-90
2022/11/25 13:47:23;;;;;;;15.48;6.90;;;;;;;9.02;87.40;100779.03;5277947;33;32045;-85
2022/11/25 13:50:29;;;;;;;15.38;7.78;;;;;;;9.00;87.44;100781.03;5287339;33;33274;-86
2022/11/25 13:54:04;;;;;;;16.98;7.35;;;;;;;8.96;88.25;100784.22;5267839;33;32439;-85
2022/11/25 13:57:10;;;;;;;15.40;8.10;;;;;;;8.89;89.43;100789.34;5299449;33;34787;-83
2022/11/25 14:00:18;;;;;;;13.85;7.50;;;;;;;8.85;89.36;100801.41;5275521;33;32287;-82
2022/11/25 14:03:20;;;;;;;15.23;7.43;;;;;;;8.71;91.08;100800.13;5271376;33;32613;-84
2022/11/25 14:06:29;;;;;;;17.35;7.85;;;;;;;8.60;91.03;100795.84;5301804;33;33795;-85
2022/11/25 14:09:50;;;;;;;15.30;7.45;;;;;;;8.57;91.93;100806.03;5290958;33;33337;-85
2022/11/25 14:13:13;;;;;;;16.80;7.53;;;;;;;8.45;93.06;100812.63;5304919;33;33593;-85
2022/11/25 14:16:51;;;;;;;20.67;8.43;;;;;;;8.33;95.29;100812.81;5278439;33;30858;-84
2022/11/25 14:20:03;;;;;;;16.05;7.95;;;;;;;8.24;95.92;100811.06;5269697;33;32280;-85
2022/11/25 14:23:30;;;;;;;14.50;7.32;;;;;;;8.20;95.51;100819.56;5275125;33;32911;-87
2022/11/25 14:26:35;;;;;;;15.10;7.68;;;;;;;8.11;96.52;100816.81;5287835;33;33775;-85
2022/11/25 14:30:04;;;;;;;16.42;8.05;;;;;;;8.01;97.97;100820.53;5276971;33;32413;-85
2022/11/25 14:33:15;;;;;;;18.10;8.10;;;;;;;7.84;99.33;100825.72;5273116;33;32786;-84
2022/11/25 14:36:28;;;;;;;20.75;9.52;;;;;;;7.70;100.00;100812.81;5284778;33;33813;-84
2022/11/25 14:39:48;;;;;;;14.80;8.32;;;;;;;7.58;100.00;100814.00;5272451;33;32278;-84
2022/11/25 14:42:57;;;;;;;17.83;8.15;;;;;;;7.52;100.00;100814.56;5278922;33;32699;-86
2022/11/25 14:46:14;;;;;;;17.83;8.70;;;;;;;7.42;100.00;100819.97;5289288;33;33915;-86
2022/11/25 14:49:17;;;;;;;19.20;8.60;;;;;;;7.31;100.00;100807.59;5286700;33;34522;-86
2022/11/25 14:52:42;;;;;;;17.80;9.07;;;;;;;7.30;100.00;100815.78;5285525;33;34346;-86
2022/11/25 14:55:47;;;;;;;22.42;9.80;;;;;;;7.30;100.00;100823.81;5268232;33;33338;-85
2022/11/25 14:58:52;;;;;;;20.48;9.68;;;;;;;7.31;100.00;100825.50;5287607;33;33900;-86
2022/11/25 15:01:55;;;;;;;20.55;9.60;;;;;;;7.23;100.00;100839.63;5269026;33;33222;-84
2022/11/25 15:05:19;;;;;;;18.60;9.32;;;;;;;7.13;100.00;100828.94;5272979;33;32055;-85
2022/11/25 15:08:23;;;;;;;23.65;10.07;;;;;;;7.07;100.00;100824.16;5284264;33;33945;-82
2022/11/25 15:11:32;;;;;;;19.15;8.85;;;;;;;7.01;100.00;100824.72;5275529;33;32114;-84
2022/11/25 15:14:40;;;;;;;21.50;9.75;;;;;;;6.99;100.00;100827.56;5277324;33;32831;-84
2022/11/25 15:17:42;;;;;;;19.50;10.60;;;;;;;6.96;100.00;100824.31;5290439;33;34887;-84
2022/11/25 15:20:49;;;;;;;21.42;9.90;;;;;;;6.92;100.00;100830.94;5278077;33;31828;-84
